createdAt,value
2022-12-11T00:01:15.107Z,7.45
2022-12-11T00:03:43.022Z,7.47
2022-12-11T00:06:13.632Z,7.47
2022-12-11T00:08:42.786Z,7.36
2022-12-11T00:11:13.648Z,7.15
2022-12-11T00:13:41.315Z,7.15
2022-12-11T00:16:10.059Z,7.03
2022-12-11T00:18:38.047Z,6.97
2022-12-11T00:21:09.879Z,6.87
2022-12-11T00:23:38.614Z,7.10
2022-12-11T00:26:13.556Z,7.11
2022-12-11T00:28:41.925Z,7.22
2022-12-11T00:31:14.217Z,7.42
2022-12-11T00:33:44.070Z,7.45
2022-12-11T00:36:17.586Z,7.52
2022-12-11T00:38:45.251Z,7.56
2022-12-11T00:41:12.847Z,7.55
2022-12-11T00:43:40.736Z,7.65
2022-12-11T00:46:08.607Z,7.59
2022-12-11T00:48:36.439Z,7.64
2022-12-11T00:51:05.305Z,7.75
2022-12-11T00:53:33.403Z,7.77
2022-12-11T00:56:01.090Z,7.74
2022-12-11T00:58:29.244Z,7.77
2022-12-11T01:01:05.817Z,7.82
2022-12-11T01:03:33.722Z,7.96
2022-12-11T01:06:01.830Z,7.81
2022-12-11T01:08:32.715Z,7.92
2022-12-11T01:11:06.499Z,8.05
2022-12-11T01:13:34.297Z,8.16
2022-12-11T01:16:15.953Z,8.31
2022-12-11T01:18:44.411Z,8.09
2022-12-11T01:21:14.054Z,8.09
2022-12-11T01:23:42.362Z,8.26
2022-12-11T01:26:15.478Z,8.23
2022-12-11T01:28:43.642Z,8.25
2022-12-11T01:31:16.901Z,8.03
2022-12-11T01:33:45.240Z,8.18
2022-12-11T01:36:16.175Z,8.24
2022-12-11T01:38:44.615Z,8.10
2022-12-11T01:41:13.352Z,7.86
2022-12-11T01:44:06.014Z,7.78
2022-12-11T01:46:36.288Z,8.07
2022-12-11T01:49:09.272Z,8.08
2022-12-11T01:51:42.797Z,8.12
2022-12-11T01:54:14.547Z,8.19
2022-12-11T01:56:45.372Z,8.12
2022-12-11T01:59:17.886Z,8.16
2022-12-11T02:02:08.924Z,8.12
2022-12-11T02:04:39.648Z,8.12
2022-12-11T02:07:07.350Z,8.08
2022-12-11T02:09:37.713Z,8.04
2022-12-11T02:12:18.039Z,8.01
2022-12-11T02:14:51.734Z,8.06
2022-12-11T02:17:53.475Z,8.08
2022-12-11T02:20:28.377Z,8.02
2022-12-11T02:23:02.006Z,8.13
2022-12-11T02:26:05.384Z,8.13
2022-12-11T02:28:39.128Z,8.04
2022-12-11T02:31:26.501Z,7.94
2022-12-11T02:34:22.807Z,8.12
2022-12-11T02:36:59.504Z,8.08
2022-12-11T02:39:28.683Z,7.96
2022-12-11T02:41:56.906Z,7.87
2022-12-11T02:44:27.781Z,7.63
2022-12-11T02:46:56.349Z,7.64
2022-12-11T02:49:25.160Z,7.78
2022-12-11T02:51:54.932Z,7.90
2022-12-11T02:54:30.499Z,7.96
2022-12-11T02:57:22.743Z,7.96
2022-12-11T02:59:50.900Z,8.09
2022-12-11T03:02:18.984Z,8.03
2022-12-11T03:04:47.724Z,8.09
2022-12-11T03:07:23.450Z,7.97
2022-12-11T03:09:51.720Z,8.08
2022-12-11T03:12:24.476Z,8.08
2022-12-11T03:14:52.626Z,8.09
2022-12-11T03:17:31.187Z,8.03
2022-12-11T03:20:30.531Z,8.00
2022-12-11T03:23:13.299Z,8.07
2022-12-11T03:26:06.347Z,7.94
2022-12-11T03:28:40.585Z,7.99
2022-12-11T03:31:13.372Z,8.05
2022-12-11T03:33:46.433Z,7.97
2022-12-11T03:36:21.649Z,8.06
2022-12-11T03:38:55.344Z,8.08
2022-12-11T03:41:25.410Z,7.99
2022-12-11T03:43:56.475Z,8.05
2022-12-11T03:46:31.307Z,8.09
2022-12-11T03:49:04.062Z,8.09
2022-12-11T03:51:34.496Z,8.14
2022-12-11T03:54:02.819Z,8.03
2022-12-11T03:56:34.329Z,8.18
2022-12-11T03:59:03.053Z,8.04
2022-12-11T04:01:30.896Z,8.20
2022-12-11T04:03:58.694Z,8.14
2022-12-11T04:06:26.423Z,7.83
2022-12-11T04:08:54.001Z,8.00
2022-12-11T04:11:34.921Z,7.94
2022-12-11T04:14:33.398Z,7.84
2022-12-11T04:17:02.013Z,7.42
2022-12-11T04:19:48.461Z,7.28
2022-12-11T04:22:27.040Z,7.24
2022-12-11T04:24:55.546Z,7.18
2022-12-11T04:27:41.585Z,7.23
2022-12-11T04:30:13.918Z,7.21
2022-12-11T04:32:41.539Z,7.25
2022-12-11T04:35:10.982Z,7.19
2022-12-11T04:37:39.857Z,7.28
2022-12-11T04:40:11.239Z,7.35
2022-12-11T04:42:38.940Z,7.15
2022-12-11T04:45:08.452Z,7.14
2022-12-11T04:47:37.328Z,7.30
2022-12-11T04:50:06.460Z,7.18
2022-12-11T04:52:34.502Z,7.27
2022-12-11T04:55:05.226Z,7.39
2022-12-11T04:57:34.199Z,7.38
2022-12-11T05:00:02.232Z,7.45
2022-12-11T05:02:29.816Z,7.28
2022-12-11T05:04:57.469Z,7.16
2022-12-11T05:07:25.089Z,6.96
2022-12-11T05:09:52.889Z,6.99
2022-12-11T05:12:20.555Z,6.89
2022-12-11T05:14:52.674Z,6.91
2022-12-11T05:17:21.863Z,6.90
2022-12-11T05:19:51.045Z,6.85
2022-12-11T05:22:19.297Z,6.85
2022-12-11T05:24:47.007Z,6.77
2022-12-11T05:27:15.053Z,6.93
2022-12-11T05:29:42.798Z,6.81
2022-12-11T05:32:10.489Z,6.65
2022-12-11T05:34:38.261Z,6.47
2022-12-11T05:37:05.914Z,6.53
2022-12-11T05:39:33.498Z,6.56
2022-12-11T05:42:03.652Z,6.48
2022-12-11T05:44:31.618Z,6.45
2022-12-11T05:46:59.433Z,6.47
2022-12-11T05:49:30.824Z,6.51
2022-12-11T05:51:58.961Z,6.58
2022-12-11T05:54:26.642Z,6.63
2022-12-11T05:56:54.704Z,6.36
2022-12-11T05:59:22.839Z,6.39
2022-12-11T06:01:50.658Z,6.27
2022-12-11T06:04:18.512Z,6.42
2022-12-11T06:06:46.236Z,6.57
2022-12-11T06:09:16.482Z,6.76
2022-12-11T06:11:44.240Z,6.70
2022-12-11T06:14:12.266Z,6.80
2022-12-11T06:16:40.070Z,6.85
2022-12-11T06:19:13.033Z,6.90
2022-12-11T06:21:40.687Z,6.86
2022-12-11T06:24:11.918Z,6.84
2022-12-11T06:26:40.066Z,6.90
2022-12-11T06:29:12.647Z,6.92
2022-12-11T06:31:40.946Z,6.85
2022-12-11T06:34:09.269Z,6.88
2022-12-11T06:36:36.983Z,6.93
2022-12-11T06:39:04.729Z,6.94
2022-12-11T06:41:32.540Z,6.95
2022-12-11T06:44:00.144Z,6.95
2022-12-11T06:46:27.832Z,7.01
2022-12-11T06:48:56.029Z,7.08
2022-12-11T06:51:24.090Z,7.19
2022-12-11T06:53:56.356Z,6.83
2022-12-11T06:56:25.480Z,6.81
2022-12-11T06:58:53.349Z,6.85
2022-12-11T07:01:26.520Z,6.78
2022-12-11T07:03:58.644Z,6.86
2022-12-11T07:06:28.785Z,6.90
2022-12-11T07:08:56.744Z,6.90
2022-12-11T07:11:24.397Z,6.82
2022-12-11T07:13:52.337Z,6.94
2022-12-11T07:16:20.223Z,7.14
2022-12-11T07:18:53.339Z,7.16
2022-12-11T07:21:21.442Z,7.01
2022-12-11T07:23:50.309Z,7.06
2022-12-11T07:26:20.558Z,6.98
2022-12-11T07:28:49.032Z,6.93
2022-12-11T07:31:20.464Z,6.95
2022-12-11T07:33:48.345Z,6.83
2022-12-11T07:36:16.323Z,6.78
2022-12-11T07:38:44.494Z,6.79
2022-12-11T07:41:15.327Z,6.87
2022-12-11T07:43:44.043Z,7.14
2022-12-11T07:46:15.021Z,7.30
2022-12-11T07:48:46.002Z,7.20
2022-12-11T07:51:20.336Z,7.14
2022-12-11T07:53:50.000Z,7.26
2022-12-11T07:56:19.515Z,6.93
2022-12-11T07:58:47.712Z,6.99
2022-12-11T08:01:23.895Z,6.95
2022-12-11T08:03:52.317Z,7.11
2022-12-11T08:06:26.604Z,6.64
2022-12-11T08:08:56.461Z,6.61
2022-12-11T08:11:24.987Z,6.54
2022-12-11T08:13:53.156Z,6.73
2022-12-11T08:16:21.290Z,6.70
2022-12-11T08:18:49.262Z,6.60
2022-12-11T08:21:20.561Z,6.63
2022-12-11T08:23:48.846Z,6.71
2022-12-11T08:26:20.009Z,6.69
2022-12-11T08:28:47.760Z,6.77
2022-12-11T08:31:16.821Z,6.64
2022-12-11T08:33:45.300Z,6.63
2022-12-11T08:36:15.289Z,6.66
2022-12-11T08:38:43.138Z,6.66
2022-12-11T08:41:16.967Z,6.70
2022-12-11T08:43:45.071Z,6.78
2022-12-11T08:46:13.594Z,6.64
2022-12-11T08:48:42.870Z,6.64
2022-12-11T08:51:16.156Z,6.67
2022-12-11T08:53:44.213Z,6.52
2022-12-11T08:56:15.416Z,6.49
2022-12-11T08:58:44.766Z,6.64
2022-12-11T09:01:15.811Z,6.69
2022-12-11T09:03:43.929Z,6.51
2022-12-11T09:06:15.449Z,6.56
2022-12-11T09:08:51.675Z,6.52
2022-12-11T09:11:23.408Z,6.35
2022-12-11T09:13:51.376Z,6.46
2022-12-11T09:16:23.393Z,6.53
2022-12-11T09:18:52.867Z,6.28
2022-12-11T09:21:23.223Z,6.71
2022-12-11T09:23:58.321Z,6.65
2022-12-11T09:26:27.179Z,6.73
2022-12-11T09:28:55.265Z,6.74
2022-12-11T09:31:29.376Z,6.73
2022-12-11T09:34:08.438Z,6.75
2022-12-11T09:36:39.517Z,6.68
2022-12-11T09:39:08.774Z,6.62
2022-12-11T09:41:54.091Z,6.55
2022-12-11T09:44:42.540Z,6.44
2022-12-11T09:47:33.956Z,6.54
2022-12-11T09:50:04.696Z,6.42
2022-12-11T09:52:38.194Z,6.40
2022-12-11T09:55:26.155Z,6.46
2022-12-11T09:57:54.912Z,6.28
2022-12-11T10:00:45.926Z,6.34
2022-12-11T10:03:38.600Z,6.37
2022-12-11T10:06:15.221Z,6.34
2022-12-11T10:09:04.788Z,6.39
2022-12-11T10:11:40.472Z,6.47
2022-12-11T10:14:20.797Z,6.83
2022-12-11T10:16:57.838Z,6.96
2022-12-11T10:19:29.187Z,6.90
2022-12-11T10:21:59.293Z,6.64
2022-12-11T10:25:13.256Z,6.50
2022-12-11T10:27:41.462Z,6.35
2022-12-11T10:30:20.309Z,6.26
2022-12-11T10:33:21.696Z,6.10
2022-12-11T10:35:54.841Z,6.34
2022-12-11T10:38:34.616Z,6.24
2022-12-11T10:41:14.094Z,6.15
2022-12-11T10:43:47.003Z,6.04
2022-12-11T10:46:22.489Z,6.18
2022-12-11T10:48:58.276Z,6.29
2022-12-11T10:51:34.820Z,6.06
2022-12-11T10:54:24.896Z,6.08
2022-12-11T10:56:54.349Z,6.20
2022-12-11T10:59:28.131Z,5.91
2022-12-11T11:01:55.779Z,5.94
2022-12-11T11:04:37.420Z,6.15
2022-12-11T11:12:15.080Z,5.93
2022-12-11T11:14:43.472Z,6.04
2022-12-11T11:17:16.454Z,6.12
2022-12-11T11:19:48.567Z,6.26
2022-12-11T11:22:19.617Z,6.14
2022-12-11T11:24:53.117Z,6.20
2022-12-11T11:27:37.120Z,6.49
2022-12-11T11:30:16.908Z,6.62
2022-12-11T11:32:44.834Z,6.83
2022-12-11T11:35:12.923Z,6.76
2022-12-11T11:37:45.364Z,6.79
2022-12-11T11:40:27.481Z,6.87
2022-12-11T11:43:29.273Z,6.99
2022-12-11T11:46:09.035Z,6.93
2022-12-11T11:48:46.144Z,6.75
2022-12-11T11:51:26.886Z,6.56
2022-12-11T11:54:00.376Z,6.66
2022-12-11T11:56:37.719Z,6.50
2022-12-11T11:59:13.757Z,6.40
2022-12-11T12:01:43.460Z,6.34
2022-12-11T12:04:11.861Z,6.52
2022-12-11T12:06:51.548Z,6.13
2022-12-11T12:09:29.470Z,6.30
2022-12-11T12:12:14.946Z,6.38
2022-12-11T12:14:52.628Z,6.27
2022-12-11T12:17:32.547Z,5.98
2022-12-11T12:20:00.122Z,6.12
2022-12-11T12:22:46.884Z,5.78
2022-12-11T12:25:39.770Z,5.68
2022-12-11T12:28:38.263Z,5.74
2022-12-11T12:31:25.061Z,5.79
2022-12-11T12:34:14.641Z,5.76
2022-12-11T12:37:11.990Z,5.56
2022-12-11T12:39:58.207Z,5.41
2022-12-11T12:42:36.368Z,5.53
2022-12-11T12:45:27.541Z,5.59
2022-12-11T12:47:55.218Z,5.70
2022-12-11T12:50:26.489Z,5.62
2022-12-11T12:52:56.133Z,5.73
2022-12-11T12:55:28.876Z,5.70
2022-12-11T12:58:00.432Z,5.64
2022-12-11T13:00:29.595Z,5.67
2022-12-11T13:02:58.680Z,5.60
2022-12-11T13:05:32.954Z,5.60
2022-12-11T13:08:05.536Z,5.54
2022-12-11T13:10:41.856Z,5.51
2022-12-11T13:13:33.332Z,5.53
2022-12-11T13:16:09.675Z,5.35
2022-12-11T13:18:40.052Z,5.47
2022-12-11T13:21:33.869Z,5.69
2022-12-11T13:24:14.031Z,5.73
2022-12-11T13:26:43.355Z,5.71
2022-12-11T13:29:40.690Z,5.42
2022-12-11T13:32:08.454Z,5.42
2022-12-11T13:34:39.746Z,5.62
2022-12-11T13:37:26.729Z,5.59
2022-12-11T13:39:55.811Z,5.66
2022-12-11T13:42:34.690Z,6.32
2022-12-11T13:45:05.551Z,5.66
2022-12-11T13:47:35.621Z,5.43
2022-12-11T13:50:29.746Z,5.28
2022-12-11T13:53:00.442Z,5.17
2022-12-11T13:55:34.604Z,5.18
2022-12-11T13:58:02.801Z,4.88
2022-12-11T14:00:33.047Z,4.66
2022-12-11T14:03:07.571Z,4.41
2022-12-11T14:05:36.588Z,4.45
2022-12-11T14:08:10.510Z,4.36
2022-12-11T14:10:40.376Z,4.34
2022-12-11T14:13:24.153Z,4.35
2022-12-11T14:15:53.720Z,4.61
2022-12-11T14:18:24.225Z,4.63
2022-12-11T14:20:58.136Z,4.63
2022-12-11T14:23:34.199Z,4.71
2022-12-11T14:26:01.926Z,4.84
2022-12-11T14:28:37.433Z,4.86
2022-12-11T14:31:07.068Z,4.94
2022-12-11T14:33:43.032Z,4.80
2022-12-11T14:36:15.587Z,4.84
2022-12-11T14:38:49.818Z,5.00
2022-12-11T14:41:23.593Z,4.86
2022-12-11T14:43:57.414Z,5.03
2022-12-11T14:46:36.945Z,5.07
2022-12-11T14:49:19.385Z,4.90
2022-12-11T14:51:48.446Z,4.78
2022-12-11T14:54:34.168Z,4.93
2022-12-11T14:57:06.713Z,4.95
2022-12-11T14:59:47.271Z,5.00
2022-12-11T15:02:30.118Z,5.03
2022-12-11T15:05:16.340Z,4.94
2022-12-11T15:07:59.744Z,5.03
2022-12-11T15:10:42.395Z,4.98
2022-12-11T15:13:10.527Z,4.95
2022-12-11T15:15:46.034Z,4.95
2022-12-11T15:18:24.613Z,4.87
2022-12-11T15:21:10.004Z,4.99
2022-12-11T15:23:59.128Z,4.87
2022-12-11T15:26:48.689Z,4.99
2022-12-11T15:29:35.386Z,5.01
2022-12-11T15:32:09.321Z,5.03
2022-12-11T15:34:47.964Z,5.02
2022-12-11T15:37:23.931Z,4.88
2022-12-11T15:39:52.838Z,4.84
2022-12-11T15:42:32.183Z,4.88
2022-12-11T15:45:00.715Z,4.90
2022-12-11T15:47:31.999Z,4.79
2022-12-11T15:50:14.477Z,4.78
2022-12-11T15:52:43.524Z,4.77
2022-12-11T15:55:12.446Z,4.72
2022-12-11T15:57:47.098Z,4.66
2022-12-11T16:00:17.093Z,4.51
2022-12-11T16:02:46.218Z,4.33
2022-12-11T16:05:14.665Z,4.24
2022-12-11T16:07:42.946Z,4.19
2022-12-11T16:10:21.112Z,4.21
2022-12-11T16:12:49.685Z,4.15
2022-12-11T16:15:23.086Z,4.10
2022-12-11T16:18:03.587Z,4.20
2022-12-11T16:20:31.579Z,4.28
2022-12-11T16:23:00.037Z,4.40
2022-12-11T16:25:28.237Z,4.41
2022-12-11T16:27:58.064Z,4.34
2022-12-11T16:30:27.325Z,4.32
2022-12-11T16:32:55.619Z,4.39
2022-12-11T16:35:24.217Z,4.43
2022-12-11T16:37:53.356Z,4.55
2022-12-11T16:40:22.269Z,4.53
2022-12-11T16:42:51.350Z,4.46
2022-12-11T16:45:22.238Z,4.50
2022-12-11T16:47:50.072Z,4.43
2022-12-11T16:50:18.172Z,4.48
2022-12-11T16:52:45.871Z,4.60
2022-12-11T16:55:14.859Z,4.45
2022-12-11T16:57:42.671Z,4.64
2022-12-11T17:00:15.499Z,4.61
2022-12-11T17:02:43.519Z,4.53
2022-12-11T17:05:11.369Z,4.47
2022-12-11T17:07:39.299Z,4.29
2022-12-11T17:10:07.931Z,4.18
2022-12-11T17:12:35.642Z,3.99
2022-12-11T17:15:03.961Z,3.91
2022-12-11T17:17:32.469Z,3.68
2022-12-11T17:20:00.408Z,3.64
2022-12-11T17:22:28.699Z,3.55
2022-12-11T17:24:56.659Z,3.49
2022-12-11T17:27:24.327Z,3.48
2022-12-11T17:29:52.369Z,3.45
2022-12-11T17:32:20.126Z,3.55
2022-12-11T17:34:50.503Z,3.56
2022-12-11T17:37:18.745Z,3.53
2022-12-11T17:39:47.594Z,3.49
2022-12-11T17:42:15.238Z,3.58
2022-12-11T17:44:45.934Z,3.67
2022-12-11T17:47:14.218Z,3.81
2022-12-11T17:49:42.372Z,3.78
2022-12-11T17:52:10.284Z,3.88
2022-12-11T17:54:39.357Z,3.94
2022-12-11T17:57:06.996Z,4.09
2022-12-11T17:59:34.731Z,4.10
2022-12-11T18:02:02.823Z,4.13
2022-12-11T18:04:30.511Z,4.16
2022-12-11T18:06:58.117Z,4.20
2022-12-11T18:09:26.333Z,4.27
2022-12-11T18:11:53.974Z,4.36
2022-12-11T18:14:21.957Z,4.43
2022-12-11T18:16:50.526Z,4.36
2022-12-11T18:19:19.575Z,4.45
2022-12-11T18:21:47.225Z,4.55
2022-12-11T18:24:15.337Z,4.50
2022-12-11T18:26:43.010Z,4.44
2022-12-11T18:29:11.474Z,4.55
2022-12-11T18:31:42.622Z,4.39
2022-12-11T18:34:11.674Z,4.35
2022-12-11T18:36:40.786Z,4.30
2022-12-11T18:39:09.237Z,4.32
2022-12-11T18:41:37.025Z,4.33
2022-12-11T18:44:09.503Z,4.36
2022-12-11T18:46:39.595Z,4.33
2022-12-11T18:49:07.785Z,4.13
2022-12-11T18:51:36.031Z,4.31
2022-12-11T18:54:04.224Z,4.34
2022-12-11T18:56:32.049Z,4.27
2022-12-11T18:59:00.161Z,4.22
2022-12-11T19:01:29.377Z,4.25
2022-12-11T19:04:03.609Z,4.24
2022-12-11T19:06:37.828Z,4.20
2022-12-11T19:09:07.496Z,4.39
2022-12-11T19:11:38.568Z,4.40
2022-12-11T19:14:07.453Z,4.33
2022-12-11T19:16:38.495Z,4.17
2022-12-11T19:19:11.394Z,4.23
2022-12-11T19:21:39.920Z,4.28
2022-12-11T19:24:11.719Z,4.28
2022-12-11T19:26:39.759Z,4.36
2022-12-11T19:29:08.309Z,4.44
2022-12-11T19:31:36.486Z,4.64
2022-12-11T19:34:04.141Z,4.76
2022-12-11T19:36:33.681Z,4.80
2022-12-11T19:39:02.529Z,4.55
2022-12-11T19:41:32.333Z,4.54
2022-12-11T19:44:00.546Z,4.55
2022-12-11T19:46:29.393Z,4.38
2022-12-11T19:48:59.057Z,4.23
2022-12-11T19:51:33.954Z,4.12
2022-12-11T19:54:03.146Z,4.01
2022-12-11T19:56:31.991Z,4.16
2022-12-11T19:59:02.007Z,4.21
2022-12-11T20:01:32.127Z,4.37
2022-12-11T20:04:02.966Z,4.40
2022-12-11T20:06:35.899Z,4.22
2022-12-11T20:09:06.539Z,4.35
2022-12-11T20:11:34.656Z,4.43
2022-12-11T20:14:02.442Z,4.54
2022-12-11T20:17:01.706Z,4.42
2022-12-11T20:19:18.262Z,4.49
2022-12-11T20:21:45.761Z,4.46
2022-12-11T20:24:13.691Z,4.52
2022-12-11T20:26:41.511Z,4.79
2022-12-11T20:29:09.210Z,4.85
2022-12-11T20:31:37.187Z,4.63
2022-12-11T20:34:06.274Z,4.53
2022-12-11T20:36:35.582Z,4.33
2022-12-11T20:39:05.051Z,4.18
2022-12-11T20:41:33.059Z,4.41
2022-12-11T20:44:01.381Z,4.25
2022-12-11T20:46:29.135Z,4.21
2022-12-11T20:49:00.726Z,4.36
2022-12-11T20:51:29.200Z,3.95
2022-12-11T20:53:59.505Z,3.97
2022-12-11T20:56:30.124Z,3.96
2022-12-11T20:58:59.539Z,3.94
2022-12-11T21:01:32.952Z,3.86
2022-12-11T21:04:01.290Z,3.76
2022-12-11T21:06:35.430Z,3.75
2022-12-11T21:09:07.003Z,3.68
2022-12-11T21:11:34.853Z,3.82
2022-12-11T21:14:03.489Z,3.84
2022-12-11T21:16:31.362Z,3.87
2022-12-11T21:18:59.464Z,3.91
2022-12-11T21:21:27.284Z,3.89
2022-12-11T21:23:54.969Z,3.89
2022-12-11T21:26:22.980Z,3.84
2022-12-11T21:28:52.107Z,3.83
2022-12-11T21:31:20.331Z,3.90
2022-12-11T21:33:48.696Z,3.88
2022-12-11T21:36:18.099Z,3.90
2022-12-11T21:38:46.786Z,3.80
2022-12-11T21:41:20.195Z,3.82
2022-12-11T21:45:06.984Z,3.87
2022-12-11T21:46:37.820Z,3.86
2022-12-11T21:49:06.157Z,3.98
2022-12-11T21:51:39.470Z,4.00
2022-12-11T21:54:13.465Z,3.99
2022-12-11T21:56:42.002Z,3.94
2022-12-11T21:59:09.622Z,3.99
2022-12-11T22:01:42.231Z,3.87
2022-12-11T22:04:11.947Z,3.94
2022-12-11T22:06:42.963Z,3.93
2022-12-11T22:09:12.632Z,3.75
2022-12-11T22:11:41.725Z,3.85
2022-12-11T22:14:15.528Z,3.93
2022-12-11T22:16:44.464Z,4.02
2022-12-11T22:19:12.574Z,4.05
2022-12-11T22:21:40.247Z,4.01
2022-12-11T22:24:08.391Z,4.08
2022-12-11T22:26:36.707Z,3.99
2022-12-11T22:29:04.712Z,3.93
2022-12-11T22:31:32.441Z,3.98
2022-12-11T22:34:03.091Z,4.01
2022-12-11T22:36:30.685Z,3.96
2022-12-11T22:39:00.140Z,4.06
2022-12-11T22:41:32.730Z,4.05
2022-12-11T22:44:00.605Z,4.07
2022-12-11T22:46:30.914Z,4.20
2022-12-11T22:48:59.138Z,4.14
2022-12-11T22:51:26.806Z,4.18
2022-12-11T22:53:55.001Z,4.04
2022-12-11T22:56:23.177Z,4.22
2022-12-11T22:58:51.317Z,4.07
2022-12-11T23:01:22.932Z,4.15
2022-12-11T23:03:53.298Z,4.01
2022-12-11T23:06:24.978Z,4.03
2022-12-11T23:08:55.152Z,3.91
2022-12-11T23:11:26.772Z,3.82
2022-12-11T23:13:56.100Z,3.94
2022-12-11T23:16:26.304Z,3.83
2022-12-11T23:18:55.901Z,3.76
2022-12-11T23:21:26.741Z,3.75
2022-12-11T23:23:55.699Z,3.89
2022-12-11T23:26:23.488Z,3.65
2022-12-11T23:28:52.824Z,3.56
2022-12-11T23:31:20.686Z,3.56
2022-12-11T23:33:48.449Z,3.49
2022-12-11T23:36:16.177Z,3.47
2022-12-11T23:38:47.181Z,3.34
2022-12-11T23:41:17.682Z,3.15
2022-12-11T23:43:45.747Z,2.83
2022-12-11T23:46:21.123Z,2.75
2022-12-11T23:48:49.351Z,2.73
2022-12-11T23:51:19.977Z,2.74
2022-12-11T23:53:48.474Z,2.64
2022-12-11T23:56:19.877Z,2.51
2022-12-11T23:58:48.005Z,2.48
